createdAt,value
2023-05-22T00:01:51.887Z,21.90
2023-05-22T00:04:22.041Z,21.90
2023-05-22T00:06:49.418Z,21.90
2023-05-22T00:09:16.498Z,22.00
2023-05-22T00:11:43.516Z,21.90
2023-05-22T00:14:10.345Z,22.00
2023-05-22T00:16:37.285Z,21.90
2023-05-22T00:19:04.502Z,22.00
2023-05-22T00:21:34.787Z,21.90
2023-05-22T00:24:02.094Z,21.90
2023-05-22T00:26:28.966Z,21.90
2023-05-22T00:28:56.745Z,21.90
2023-05-22T00:31:23.979Z,21.90
2023-05-22T00:33:50.961Z,21.90
2023-05-22T00:36:18.834Z,21.90
2023-05-22T00:38:46.328Z,21.80
2023-05-22T00:41:13.456Z,21.80
2023-05-22T00:43:40.469Z,21.80
2023-05-22T00:46:10.266Z,21.90
2023-05-22T00:48:37.080Z,21.90
2023-05-22T00:51:04.084Z,21.80
2023-05-22T00:53:31.619Z,21.80
2023-05-22T00:55:59.090Z,21.80
2023-05-22T00:58:26.352Z,21.90
2023-05-22T01:00:53.255Z,21.80
2023-05-22T01:03:25.960Z,21.80
2023-05-22T01:05:53.924Z,21.80
2023-05-22T01:08:21.472Z,21.80
2023-05-22T01:10:50.702Z,21.80
2023-05-22T01:13:17.529Z,21.70
2023-05-22T01:15:49.841Z,21.70
2023-05-22T01:18:19.879Z,21.70
2023-05-22T01:20:48.834Z,21.60
2023-05-22T01:23:21.794Z,21.60
2023-05-22T01:25:56.664Z,21.60
2023-05-22T01:28:29.655Z,21.60
2023-05-22T01:31:00.793Z,21.60
2023-05-22T01:33:30.104Z,21.50
2023-05-22T01:35:57.831Z,21.40
2023-05-22T01:38:24.978Z,21.40
2023-05-22T01:40:53.884Z,21.30
2023-05-22T01:43:20.932Z,21.30
2023-05-22T01:45:47.849Z,21.20
2023-05-22T01:48:14.715Z,21.00
2023-05-22T01:50:41.847Z,21.00
2023-05-22T01:53:28.785Z,21.00
2023-05-22T01:55:55.960Z,20.90
2023-05-22T01:58:41.845Z,20.80
2023-05-22T02:01:10.181Z,20.70
2023-05-22T02:03:39.627Z,20.60
2023-05-22T02:06:07.737Z,20.60
2023-05-22T02:08:38.267Z,20.50
2023-05-22T02:11:05.295Z,20.40
2023-05-22T02:13:32.378Z,20.30
2023-05-22T02:15:59.499Z,20.20
2023-05-22T02:18:29.524Z,20.10
2023-05-22T02:21:00.528Z,20.00
2023-05-22T02:23:29.731Z,20.00
2023-05-22T02:25:56.944Z,19.90
2023-05-22T02:28:24.005Z,19.90
2023-05-22T02:30:50.934Z,19.90
2023-05-22T02:33:18.639Z,19.80
2023-05-22T02:35:45.996Z,19.80
2023-05-22T02:38:12.973Z,19.70
2023-05-22T02:40:40.190Z,19.60
2023-05-22T02:43:08.271Z,19.50
2023-05-22T02:45:36.079Z,19.40
2023-05-22T02:48:03.799Z,19.40
2023-05-22T02:50:32.027Z,19.30
2023-05-22T02:52:58.832Z,19.30
2023-05-22T02:55:25.715Z,19.20
2023-05-22T02:57:52.801Z,19.20
2023-05-22T03:00:19.926Z,19.10
2023-05-22T03:02:47.348Z,19.10
2023-05-22T03:05:17.881Z,19.10
2023-05-22T03:07:48.185Z,19.20
2023-05-22T03:10:15.659Z,19.20
2023-05-22T03:12:42.591Z,19.20
2023-05-22T03:15:11.120Z,19.20
2023-05-22T03:17:39.831Z,19.20
2023-05-22T03:20:08.616Z,19.20
2023-05-22T03:22:35.584Z,19.30
2023-05-22T03:25:02.560Z,19.30
2023-05-22T03:27:29.950Z,19.30
2023-05-22T03:29:56.834Z,19.30
2023-05-22T03:32:24.446Z,19.30
2023-05-22T03:34:51.858Z,19.40
2023-05-22T03:37:18.806Z,19.40
2023-05-22T03:39:46.021Z,19.40
2023-05-22T03:42:25.006Z,19.40
2023-05-22T03:44:51.853Z,19.50
2023-05-22T03:47:19.183Z,19.50
2023-05-22T03:49:46.927Z,19.50
2023-05-22T03:52:13.789Z,19.40
2023-05-22T03:54:40.672Z,19.40
2023-05-22T03:57:07.697Z,19.50
2023-05-22T03:59:36.000Z,19.50
2023-05-22T04:02:02.900Z,19.50
2023-05-22T04:04:29.993Z,19.50
2023-05-22T04:06:58.266Z,19.50
2023-05-22T04:09:31.509Z,19.60
2023-05-22T04:11:58.808Z,19.60
2023-05-22T04:14:26.251Z,19.60
2023-05-22T04:16:53.413Z,19.60
2023-05-22T04:19:20.835Z,19.60
2023-05-22T04:21:48.688Z,19.60
2023-05-22T04:24:18.308Z,19.50
2023-05-22T04:26:45.157Z,19.60
2023-05-22T04:29:14.408Z,19.50
2023-05-22T04:31:42.098Z,19.50
2023-05-22T04:34:15.139Z,19.60
2023-05-22T04:36:45.250Z,19.60
2023-05-22T04:39:13.888Z,19.60
2023-05-22T04:41:41.077Z,19.70
2023-05-22T04:44:08.195Z,19.70
2023-05-22T04:46:36.002Z,19.80
2023-05-22T04:49:03.354Z,19.90
2023-05-22T04:51:34.926Z,19.90
2023-05-22T04:54:01.872Z,20.00
2023-05-22T04:56:36.411Z,20.10
2023-05-22T04:59:05.620Z,20.20
2023-05-22T05:01:35.076Z,20.20
2023-05-22T05:04:03.711Z,20.30
2023-05-22T05:06:30.759Z,20.40
2023-05-22T05:08:58.256Z,20.50
2023-05-22T05:11:26.030Z,20.60
2023-05-22T05:13:53.415Z,20.90
2023-05-22T05:16:20.267Z,21.50
2023-05-22T05:18:47.142Z,22.20
2023-05-22T05:21:14.164Z,22.80
2023-05-22T05:23:41.404Z,23.30
2023-05-22T05:26:08.389Z,23.70
2023-05-22T05:28:35.625Z,24.10
2023-05-22T05:31:02.994Z,24.50
2023-05-22T05:33:50.489Z,24.90
2023-05-22T05:36:28.773Z,25.30
2023-05-22T05:38:58.040Z,25.90
2023-05-22T05:41:26.733Z,26.30
2023-05-22T05:44:00.266Z,26.60
2023-05-22T05:46:30.790Z,26.90
2023-05-22T05:48:57.962Z,27.20
2023-05-22T05:51:25.063Z,27.50
2023-05-22T05:53:52.865Z,27.80
2023-05-22T05:56:21.320Z,28.10
2023-05-22T05:58:48.560Z,28.40
2023-05-22T06:01:48.534Z,28.70
2023-05-22T06:04:22.143Z,29.20
2023-05-22T06:06:51.883Z,29.50
2023-05-22T06:09:18.777Z,29.60
2023-05-22T06:12:24.040Z,29.80
2023-05-22T06:14:50.943Z,30.00
2023-05-22T06:17:17.831Z,30.30
2023-05-22T06:19:45.639Z,30.50
2023-05-22T06:22:13.720Z,30.80
2023-05-22T06:24:43.312Z,31.40
2023-05-22T06:27:15.163Z,31.90
2023-05-22T06:29:42.051Z,32.40
2023-05-22T06:32:09.141Z,32.40
2023-05-22T06:34:38.061Z,32.60
2023-05-22T06:37:06.156Z,33.00
2023-05-22T06:39:39.004Z,33.60
2023-05-22T06:42:17.152Z,33.90
2023-05-22T06:45:22.231Z,34.20
2023-05-22T06:48:07.634Z,34.70
2023-05-22T06:50:43.232Z,35.20
2023-05-22T06:53:10.196Z,35.20
2023-05-22T06:55:37.137Z,35.30
2023-05-22T06:58:11.266Z,35.60
2023-05-22T07:00:40.444Z,35.70
2023-05-22T07:03:13.481Z,35.90
2023-05-22T07:05:59.521Z,35.90
2023-05-22T07:08:29.718Z,35.90
2023-05-22T07:10:57.396Z,36.10
2023-05-22T07:13:30.365Z,36.20
2023-05-22T07:15:57.328Z,36.00
2023-05-22T07:18:24.840Z,36.00
2023-05-22T07:20:52.167Z,36.20
2023-05-22T07:23:23.323Z,36.40
2023-05-22T07:25:51.173Z,36.40
2023-05-22T07:28:21.206Z,36.50
2023-05-22T07:30:59.296Z,36.60
2023-05-22T07:33:26.502Z,36.70
2023-05-22T07:35:53.664Z,36.80
2023-05-22T07:38:21.211Z,37.20
2023-05-22T07:40:56.311Z,37.50
2023-05-22T07:43:24.211Z,37.70
2023-05-22T07:45:51.668Z,37.90
2023-05-22T07:48:23.045Z,38.00
2023-05-22T07:50:50.042Z,38.00
2023-05-22T07:53:16.881Z,38.00
2023-05-22T07:55:45.670Z,38.10
2023-05-22T07:58:13.201Z,38.10
2023-05-22T08:00:42.566Z,37.90
2023-05-22T08:03:09.455Z,37.70
2023-05-22T08:05:36.389Z,37.90
2023-05-22T08:08:04.779Z,37.90
2023-05-22T08:10:46.410Z,38.00
2023-05-22T08:13:18.871Z,37.30
2023-05-22T08:15:46.176Z,36.50
2023-05-22T08:18:13.721Z,36.40
2023-05-22T08:20:40.901Z,36.50
2023-05-22T08:23:08.000Z,36.70
2023-05-22T08:25:34.918Z,37.00
2023-05-22T08:28:01.870Z,37.20
2023-05-22T08:30:28.808Z,37.00
2023-05-22T08:32:55.654Z,37.10
2023-05-22T08:35:22.663Z,36.90
2023-05-22T08:37:49.494Z,36.70
2023-05-22T08:40:17.046Z,36.80
2023-05-22T08:42:44.002Z,36.50
2023-05-22T08:45:10.975Z,36.40
2023-05-22T08:47:39.369Z,36.30
2023-05-22T08:50:07.251Z,36.30
2023-05-22T08:52:37.392Z,36.60
2023-05-22T08:55:07.608Z,37.00
2023-05-22T08:57:34.918Z,37.00
2023-05-22T09:00:01.800Z,36.70
2023-05-22T09:02:28.735Z,36.30
2023-05-22T09:04:57.310Z,36.10
2023-05-22T09:07:24.992Z,36.30
2023-05-22T09:09:51.870Z,36.20
2023-05-22T09:12:18.757Z,36.20
2023-05-22T09:14:45.570Z,36.40
2023-05-22T09:17:14.815Z,36.20
2023-05-22T09:19:45.889Z,35.90
2023-05-22T09:22:13.971Z,36.00
2023-05-22T09:24:44.685Z,36.10
2023-05-22T09:27:11.919Z,35.60
2023-05-22T09:29:49.433Z,35.60
2023-05-22T09:32:17.103Z,35.70
2023-05-22T09:34:47.605Z,36.20
2023-05-22T09:37:14.867Z,36.20
2023-05-22T09:39:46.006Z,35.90
2023-05-22T09:42:15.662Z,35.60
2023-05-22T09:44:44.234Z,35.60
2023-05-22T09:47:11.681Z,35.70
2023-05-22T09:49:45.405Z,35.90
2023-05-22T09:52:15.191Z,36.40
2023-05-22T09:54:46.681Z,36.70
2023-05-22T09:57:14.083Z,36.70
2023-05-22T09:59:43.007Z,36.60
2023-05-22T10:02:10.769Z,36.30
2023-05-22T10:04:38.415Z,36.40
2023-05-22T10:07:06.068Z,36.50
2023-05-22T10:09:35.879Z,36.20
2023-05-22T10:12:05.699Z,36.00
2023-05-22T10:14:34.915Z,36.00
2023-05-22T10:17:04.854Z,36.00
2023-05-22T10:19:33.232Z,36.20
2023-05-22T10:22:00.459Z,36.40
2023-05-22T10:24:27.425Z,36.30
2023-05-22T10:26:54.495Z,36.40
2023-05-22T10:29:36.663Z,36.50
2023-05-22T10:32:09.352Z,36.70
2023-05-22T10:35:01.810Z,37.00
2023-05-22T10:37:52.142Z,37.10
2023-05-22T10:40:29.083Z,37.20
2023-05-22T10:42:59.750Z,37.30
2023-05-22T10:45:28.264Z,37.20
2023-05-22T10:48:11.856Z,37.10
2023-05-22T10:50:39.501Z,36.90
2023-05-22T10:53:24.748Z,37.10
2023-05-22T10:55:52.582Z,37.90
2023-05-22T10:58:25.936Z,38.30
2023-05-22T11:01:09.494Z,38.30
2023-05-22T11:03:55.587Z,38.30
2023-05-22T11:06:31.668Z,38.10
2023-05-22T11:08:58.915Z,38.00
2023-05-22T11:11:26.741Z,38.20
2023-05-22T11:13:54.000Z,38.60
2023-05-22T11:16:22.501Z,39.10
2023-05-22T11:18:49.428Z,39.30
2023-05-22T11:21:16.848Z,39.20
2023-05-22T11:23:43.814Z,39.30
2023-05-22T11:26:22.296Z,39.20
2023-05-22T11:28:49.554Z,38.80
2023-05-22T11:31:17.163Z,38.30
2023-05-22T11:33:45.581Z,38.30
2023-05-22T11:36:12.897Z,38.40
2023-05-22T11:38:40.756Z,37.80
2023-05-22T11:41:13.683Z,37.50
2023-05-22T11:43:42.256Z,37.20
2023-05-22T11:46:10.494Z,37.10
2023-05-22T11:48:40.538Z,37.40
2023-05-22T11:51:07.841Z,37.70
2023-05-22T11:53:35.187Z,37.80
2023-05-22T11:56:03.272Z,37.70
2023-05-22T11:58:30.847Z,37.30
2023-05-22T12:01:01.614Z,36.70
2023-05-22T12:03:29.250Z,36.30
2023-05-22T12:05:56.908Z,36.20
2023-05-22T12:08:24.930Z,36.00
2023-05-22T12:10:52.892Z,35.80
2023-05-22T12:13:26.826Z,35.50
2023-05-22T12:15:55.056Z,34.70
2023-05-22T12:18:22.045Z,33.90
2023-05-22T12:20:52.135Z,33.30
2023-05-22T12:23:22.746Z,33.20
2023-05-22T12:25:59.596Z,33.10
2023-05-22T12:28:26.671Z,33.00
2023-05-22T12:30:54.692Z,32.80
2023-05-22T12:33:31.074Z,32.70
2023-05-22T12:36:01.323Z,32.60
2023-05-22T12:38:29.561Z,32.70
2023-05-22T12:40:56.572Z,32.70
2023-05-22T12:43:25.020Z,32.30
2023-05-22T12:45:52.212Z,32.10
2023-05-22T12:48:19.795Z,31.90
2023-05-22T12:50:46.935Z,31.80
2023-05-22T12:53:13.829Z,31.80
2023-05-22T12:55:41.014Z,31.70
2023-05-22T12:58:08.122Z,31.80
2023-05-22T13:00:35.027Z,31.90
2023-05-22T13:03:02.195Z,32.20
2023-05-22T13:05:29.105Z,32.00
2023-05-22T13:07:56.010Z,31.90
2023-05-22T13:10:22.876Z,32.00
2023-05-22T13:12:51.598Z,31.90
2023-05-22T13:15:18.697Z,31.60
2023-05-22T13:17:45.882Z,31.30
2023-05-22T13:20:13.492Z,31.20
2023-05-22T13:22:41.756Z,31.20
2023-05-22T13:25:08.782Z,31.00
2023-05-22T13:27:35.866Z,31.00
2023-05-22T13:30:02.884Z,31.20
2023-05-22T13:32:29.906Z,31.20
2023-05-22T13:34:56.778Z,31.20
2023-05-22T13:37:23.948Z,31.10
2023-05-22T13:39:50.776Z,30.60
2023-05-22T13:42:17.944Z,30.40
2023-05-22T13:44:44.819Z,30.30
2023-05-22T13:47:11.862Z,30.30
2023-05-22T13:49:38.732Z,30.40
2023-05-22T13:52:05.714Z,30.70
2023-05-22T13:54:32.604Z,31.10
2023-05-22T13:57:02.269Z,31.20
2023-05-22T13:59:29.538Z,31.30
2023-05-22T14:01:56.478Z,31.20
2023-05-22T14:04:23.635Z,31.10
2023-05-22T14:06:50.749Z,30.90
2023-05-22T14:09:17.827Z,30.70
2023-05-22T14:11:44.779Z,30.40
2023-05-22T14:14:11.630Z,30.20
2023-05-22T14:16:38.634Z,30.00
2023-05-22T14:19:05.796Z,30.10
2023-05-22T14:21:33.028Z,30.20
2023-05-22T14:24:02.393Z,30.30
2023-05-22T14:26:29.337Z,30.40
2023-05-22T14:28:56.393Z,30.50
2023-05-22T14:31:23.317Z,30.60
2023-05-22T14:33:50.192Z,30.50
2023-05-22T14:36:17.946Z,30.30
2023-05-22T14:38:44.852Z,30.20
2023-05-22T14:41:11.746Z,30.20
2023-05-22T14:43:38.601Z,30.20
2023-05-22T14:46:05.796Z,29.90
2023-05-22T14:48:32.664Z,29.80
2023-05-22T14:50:59.569Z,29.70
2023-05-22T14:53:26.430Z,29.70
2023-05-22T14:55:53.320Z,29.70
2023-05-22T14:58:20.160Z,29.50
2023-05-22T15:00:47.411Z,29.30
2023-05-22T15:03:14.439Z,29.20
2023-05-22T15:05:41.460Z,29.20
2023-05-22T15:08:08.592Z,29.10
2023-05-22T15:10:36.253Z,29.00
2023-05-22T15:13:03.144Z,29.00
2023-05-22T15:15:30.017Z,29.00
2023-05-22T15:17:57.389Z,28.90
2023-05-22T15:20:24.260Z,28.90
2023-05-22T15:22:51.320Z,29.10
2023-05-22T15:25:18.168Z,29.10
2023-05-22T15:27:45.005Z,29.00
2023-05-22T15:30:12.467Z,29.00
2023-05-22T15:32:39.571Z,28.90
2023-05-22T15:35:07.071Z,28.90
2023-05-22T15:37:34.183Z,28.80
2023-05-22T15:40:01.913Z,28.80
2023-05-22T15:42:29.151Z,28.80
2023-05-22T15:44:56.609Z,28.80
2023-05-22T15:47:23.481Z,28.80
2023-05-22T15:49:50.532Z,28.70
2023-05-22T15:52:18.033Z,28.70
2023-05-22T15:54:44.927Z,28.70
2023-05-22T15:57:11.769Z,28.70
2023-05-22T15:59:38.661Z,28.60
2023-05-22T16:02:05.551Z,28.60
2023-05-22T16:04:32.666Z,28.60
2023-05-22T16:06:59.616Z,28.50
2023-05-22T16:09:26.466Z,28.50
2023-05-22T16:11:53.387Z,28.40
2023-05-22T16:14:20.298Z,28.40
2023-05-22T16:16:47.125Z,28.30
2023-05-22T16:19:14.067Z,28.40
2023-05-22T16:21:41.132Z,28.30
2023-05-22T16:24:08.901Z,28.30
2023-05-22T16:26:37.736Z,28.30
2023-05-22T16:29:07.344Z,28.30
2023-05-22T16:31:35.718Z,28.30
2023-05-22T16:34:03.232Z,28.20
2023-05-22T16:36:30.217Z,28.20
2023-05-22T16:38:57.285Z,28.20
2023-05-22T16:41:24.332Z,28.20
2023-05-22T16:43:51.353Z,28.20
2023-05-22T16:46:18.357Z,28.10
2023-05-22T16:48:45.279Z,28.00
2023-05-22T16:51:12.205Z,28.00
2023-05-22T16:53:41.890Z,28.00
2023-05-22T16:56:08.804Z,27.90
2023-05-22T16:58:35.918Z,27.80
2023-05-22T17:01:02.980Z,27.80
2023-05-22T17:03:29.961Z,27.70
2023-05-22T17:05:57.099Z,27.60
2023-05-22T17:08:24.021Z,27.50
2023-05-22T17:10:51.070Z,27.50
2023-05-22T17:13:20.853Z,27.40
2023-05-22T17:15:48.807Z,27.30
2023-05-22T17:18:19.650Z,27.20
2023-05-22T17:20:49.919Z,27.10
2023-05-22T17:23:17.859Z,27.00
2023-05-22T17:25:46.674Z,26.80
2023-05-22T17:28:17.408Z,26.60
2023-05-22T17:30:45.216Z,26.40
2023-05-22T17:33:12.827Z,26.30
2023-05-22T17:35:39.736Z,26.30
2023-05-22T17:38:08.483Z,26.20
2023-05-22T17:40:45.026Z,26.10
2023-05-22T17:43:12.974Z,26.10
2023-05-22T17:45:40.207Z,26.00
2023-05-22T17:48:07.784Z,25.90
2023-05-22T17:50:34.832Z,25.80
2023-05-22T17:53:01.712Z,25.80
2023-05-22T17:55:28.586Z,25.70
2023-05-22T17:57:56.119Z,25.60
2023-05-22T18:00:23.050Z,25.60
2023-05-22T18:02:49.966Z,25.60
2023-05-22T18:05:16.913Z,25.40
2023-05-22T18:07:43.878Z,25.40
2023-05-22T18:10:11.067Z,25.30
2023-05-22T18:12:38.659Z,25.20
2023-05-22T18:15:08.494Z,25.10
2023-05-22T18:17:35.716Z,25.00
2023-05-22T18:20:03.207Z,24.80
2023-05-22T18:22:30.156Z,24.70
2023-05-22T18:24:57.168Z,24.60
2023-05-22T18:27:24.074Z,24.50
2023-05-22T18:29:52.586Z,24.40
2023-05-22T18:32:19.428Z,24.30
2023-05-22T18:34:46.549Z,24.20
2023-05-22T18:37:14.093Z,24.10
2023-05-22T18:39:41.103Z,24.00
2023-05-22T18:42:08.044Z,23.90
2023-05-22T18:44:35.022Z,23.80
2023-05-22T18:47:02.009Z,23.70
2023-05-22T18:49:28.884Z,23.60
2023-05-22T18:51:55.745Z,23.60
2023-05-22T18:54:22.577Z,23.40
2023-05-22T18:56:49.425Z,23.40
2023-05-22T18:59:16.423Z,23.30
2023-05-22T19:01:43.364Z,23.20
2023-05-22T19:04:10.373Z,23.10
2023-05-22T19:06:37.872Z,23.10
2023-05-22T19:09:05.212Z,23.00
2023-05-22T19:11:32.095Z,22.90
2023-05-22T19:13:59.774Z,22.80
2023-05-22T19:16:26.918Z,22.70
2023-05-22T19:18:53.926Z,22.70
2023-05-22T19:21:20.762Z,22.60
2023-05-22T19:23:48.410Z,22.60
2023-05-22T19:26:15.396Z,22.50
2023-05-22T19:28:43.191Z,22.40
2023-05-22T19:31:10.204Z,22.40
2023-05-22T19:33:37.478Z,22.30
2023-05-22T19:36:06.624Z,22.30
2023-05-22T19:38:33.572Z,22.30
2023-05-22T19:41:00.650Z,22.20
2023-05-22T19:43:27.695Z,22.10
2023-05-22T19:45:55.551Z,22.10
2023-05-22T19:48:22.472Z,22.00
2023-05-22T19:50:50.133Z,22.00
2023-05-22T19:53:16.981Z,21.90
2023-05-22T19:55:43.899Z,21.90
2023-05-22T19:58:10.754Z,21.90
2023-05-22T20:00:38.092Z,21.80
2023-05-22T20:03:05.424Z,21.80
2023-05-22T20:05:32.404Z,21.70
2023-05-22T20:07:59.308Z,21.70
2023-05-22T20:10:26.182Z,21.70
2023-05-22T20:12:54.103Z,21.60
2023-05-22T20:15:21.545Z,21.60
2023-05-22T20:17:51.891Z,21.50
2023-05-22T20:20:23.893Z,21.50
2023-05-22T20:22:52.754Z,21.50
2023-05-22T20:25:21.217Z,21.40
2023-05-22T20:27:48.130Z,21.40
2023-05-22T20:30:15.045Z,21.40
2023-05-22T20:32:46.557Z,21.30
2023-05-22T20:35:13.634Z,21.30
2023-05-22T20:37:41.708Z,21.30
2023-05-22T20:40:09.523Z,21.20
2023-05-22T20:42:37.451Z,21.20
2023-05-22T20:45:05.078Z,21.20
2023-05-22T20:47:31.940Z,21.10
2023-05-22T20:49:58.856Z,21.10
2023-05-22T20:52:30.326Z,21.00
2023-05-22T20:54:57.880Z,21.00
2023-05-22T20:57:27.562Z,21.00
2023-05-22T20:59:54.515Z,20.90
2023-05-22T21:02:21.511Z,20.90
2023-05-22T21:04:48.382Z,20.90
2023-05-22T21:07:15.479Z,20.80
2023-05-22T21:09:42.370Z,20.80
2023-05-22T21:12:09.296Z,20.80
2023-05-22T21:14:36.212Z,20.70
2023-05-22T21:17:03.403Z,20.70
2023-05-22T21:19:30.391Z,20.70
2023-05-22T21:21:57.298Z,20.60
2023-05-22T21:24:24.146Z,20.60
2023-05-22T21:26:50.984Z,20.60
2023-05-22T21:29:17.849Z,20.60
2023-05-22T21:31:45.677Z,20.50
2023-05-22T21:34:12.530Z,20.50
2023-05-22T21:36:39.382Z,20.50
2023-05-22T21:39:06.517Z,20.40
2023-05-22T21:41:33.501Z,20.40
2023-05-22T21:44:00.377Z,20.40
2023-05-22T21:46:27.282Z,20.30
2023-05-22T21:48:54.199Z,20.40
2023-05-22T21:51:21.092Z,20.30
2023-05-22T21:53:47.997Z,20.30
2023-05-22T21:56:14.893Z,20.30
2023-05-22T21:58:42.050Z,20.30
2023-05-22T22:01:10.138Z,20.30
2023-05-22T22:03:38.805Z,20.30
2023-05-22T22:06:06.060Z,20.20
2023-05-22T22:08:33.094Z,20.20
2023-05-22T22:10:59.999Z,20.20
2023-05-22T22:13:26.864Z,20.20
2023-05-22T22:15:53.713Z,20.20
2023-05-22T22:18:20.611Z,20.20
2023-05-22T22:20:50.219Z,20.10
2023-05-22T22:23:17.481Z,20.20
2023-05-22T22:25:44.340Z,20.10
2023-05-22T22:28:11.437Z,20.10
2023-05-22T22:30:38.456Z,20.10
2023-05-22T22:33:05.628Z,20.10
2023-05-22T22:35:32.553Z,20.10
2023-05-22T22:37:59.394Z,20.00
2023-05-22T22:40:38.273Z,20.00
2023-05-22T22:43:05.219Z,20.00
2023-05-22T22:45:32.044Z,20.00
2023-05-22T22:48:00.539Z,19.90
2023-05-22T22:50:28.116Z,20.00
2023-05-22T22:52:55.581Z,19.90
2023-05-22T22:55:22.586Z,19.90
2023-05-22T22:57:50.152Z,19.90
2023-05-22T23:00:17.951Z,19.90
2023-05-22T23:02:44.942Z,19.90
2023-05-22T23:05:12.279Z,19.90
2023-05-22T23:07:39.259Z,19.90
2023-05-22T23:10:06.597Z,19.80
2023-05-22T23:12:35.984Z,19.80
2023-05-22T23:15:03.328Z,19.80
2023-05-22T23:17:30.310Z,19.70
2023-05-22T23:19:57.360Z,19.80
2023-05-22T23:22:24.204Z,19.70
2023-05-22T23:24:51.129Z,19.70
2023-05-22T23:27:18.086Z,19.70
2023-05-22T23:29:44.969Z,19.70
2023-05-22T23:32:13.872Z,19.70
2023-05-22T23:34:42.455Z,19.70
2023-05-22T23:37:09.464Z,19.70
2023-05-22T23:39:36.429Z,19.60
2023-05-22T23:42:03.318Z,19.60
2023-05-22T23:44:30.575Z,19.50
2023-05-22T23:46:57.745Z,19.50
2023-05-22T23:49:24.723Z,19.50
2023-05-22T23:51:51.586Z,19.50
2023-05-22T23:54:18.441Z,19.50
2023-05-22T23:56:45.304Z,19.50
2023-05-22T23:59:12.242Z,19.50
